sensor_id;sensor_type;location;lat;lon;timestamp;P1;P2;P0
48155;PMS5003;35568;48.104;11.782;2022-07-21T00:01:03;7;6;
48155;PMS5003;35568;48.104;11.782;2022-07-21T00:03:30;4;4;
48155;PMS5003;35568;48.104;11.782;2022-07-21T00:05:56;5;4;
48155;PMS5003;35568;48.104;11.782;2022-07-21T00:08:24;4;4;
48155;PMS5003;35568;48.104;11.782;2022-07-21T00:10:51;5;5;
48155;PMS5003;35568;48.104;11.782;2022-07-21T00:13:18;6;5;
48155;PMS5003;35568;48.104;11.782;2022-07-21T00:15:44;7;7;
48155;PMS5003;35568;48.104;11.782;2022-07-21T00:18:12;6;5;
48155;PMS5003;35568;48.104;11.782;2022-07-21T00:20:40;6;5;
48155;PMS5003;35568;48.104;11.782;2022-07-21T00:23:07;6;6;
48155;PMS5003;35568;48.104;11.782;2022-07-21T00:25:34;5;5;
48155;PMS5003;35568;48.104;11.782;2022-07-21T00:28:01;6;5;
48155;PMS5003;35568;48.104;11.782;2022-07-21T00:30:29;3;3;
48155;PMS5003;35568;48.104;11.782;2022-07-21T00:32:56;6;6;
48155;PMS5003;35568;48.104;11.782;2022-07-21T00:35:23;6;6;
48155;PMS5003;35568;48.104;11.782;2022-07-21T00:37:50;8;8;
48155;PMS5003;35568;48.104;11.782;2022-07-21T00:40:17;5;4;
48155;PMS5003;35568;48.104;11.782;2022-07-21T00:42:44;6;5;
48155;PMS5003;35568;48.104;11.782;2022-07-21T00:45:11;5;5;
48155;PMS5003;35568;48.104;11.782;2022-07-21T00:47:39;6;6;
48155;PMS5003;35568;48.104;11.782;2022-07-21T00:50:08;6;5;
48155;PMS5003;35568;48.104;11.782;2022-07-21T00:52:38;7;6;
48155;PMS5003;35568;48.104;11.782;2022-07-21T00:55:06;4;4;
48155;PMS5003;35568;48.104;11.782;2022-07-21T00:57:34;7;7;
48155;PMS5003;35568;48.104;11.782;2022-07-21T01:00:00;5;5;
48155;PMS5003;35568;48.104;11.782;2022-07-21T01:02:27;5;5;
48155;PMS5003;35568;48.104;11.782;2022-07-21T01:04:54;4;4;
48155;PMS5003;35568;48.104;11.782;2022-07-21T01:07:21;6;5;
48155;PMS5003;35568;48.104;11.782;2022-07-21T01:09:49;5;4;
48155;PMS5003;35568;48.104;11.782;2022-07-21T01:12:15;6;6;
48155;PMS5003;35568;48.104;11.782;2022-07-21T01:14:42;6;6;
48155;PMS5003;35568;48.104;11.782;2022-07-21T01:17:10;3;3;
48155;PMS5003;35568;48.104;11.782;2022-07-21T01:19:37;5;5;
48155;PMS5003;35568;48.104;11.782;2022-07-21T01:22:05;6;6;
48155;PMS5003;35568;48.104;11.782;2022-07-21T01:24:31;5;5;
48155;PMS5003;35568;48.104;11.782;2022-07-21T01:26:58;7;7;
48155;PMS5003;35568;48.104;11.782;2022-07-21T01:29:25;5;5;
48155;PMS5003;35568;48.104;11.782;2022-07-21T01:31:52;5;5;
48155;PMS5003;35568;48.104;11.782;2022-07-21T01:34:20;6;6;
48155;PMS5003;35568;48.104;11.782;2022-07-21T01:36:46;5;5;
48155;PMS5003;35568;48.104;11.782;2022-07-21T01:39:13;6;6;
48155;PMS5003;35568;48.104;11.782;2022-07-21T01:41:40;6;5;
48155;PMS5003;35568;48.104;11.782;2022-07-21T01:44:08;7;7;
48155;PMS5003;35568;48.104;11.782;2022-07-21T01:46:38;8;8;
48155;PMS5003;35568;48.104;11.782;2022-07-21T01:49:08;7;6;
48155;PMS5003;35568;48.104;11.782;2022-07-21T01:51:34;8;7;
48155;PMS5003;35568;48.104;11.782;2022-07-21T01:54:01;7;6;
48155;PMS5003;35568;48.104;11.782;2022-07-21T01:56:29;6;5;
48155;PMS5003;35568;48.104;11.782;2022-07-21T01:58:56;4;4;
48155;PMS5003;35568;48.104;11.782;2022-07-21T02:01:24;6;6;
48155;PMS5003;35568;48.104;11.782;2022-07-21T02:03:53;5;5;
48155;PMS5003;35568;48.104;11.782;2022-07-21T02:06:20;5;5;
48155;PMS5003;35568;48.104;11.782;2022-07-21T02:08:47;7;7;
48155;PMS5003;35568;48.104;11.782;2022-07-21T02:11:15;5;5;
48155;PMS5003;35568;48.104;11.782;2022-07-21T02:13:44;7;7;
48155;PMS5003;35568;48.104;11.782;2022-07-21T02:16:12;6;6;
48155;PMS5003;35568;48.104;11.782;2022-07-21T02:18:39;9;9;
48155;PMS5003;35568;48.104;11.782;2022-07-21T02:21:06;7;7;
48155;PMS5003;35568;48.104;11.782;2022-07-21T02:23:34;8;8;
48155;PMS5003;35568;48.104;11.782;2022-07-21T02:26:01;7;6;
48155;PMS5003;35568;48.104;11.782;2022-07-21T02:28:28;8;7;
48155;PMS5003;35568;48.104;11.782;2022-07-21T02:30:55;6;5;
48155;PMS5003;35568;48.104;11.782;2022-07-21T03:02:59;9;7;
48155;PMS5003;35568;48.104;11.782;2022-07-21T03:05:26;8;8;
48155;PMS5003;35568;48.104;11.782;2022-07-21T03:07:53;8;7;
48155;PMS5003;35568;48.104;11.782;2022-07-21T03:10:20;8;8;
48155;PMS5003;35568;48.104;11.782;2022-07-21T03:12:47;10;10;
48155;PMS5003;35568;48.104;11.782;2022-07-21T03:15:13;10;8;
48155;PMS5003;35568;48.104;11.782;2022-07-21T03:17:40;8;7;
48155;PMS5003;35568;48.104;11.782;2022-07-21T03:20:08;8;7;
48155;PMS5003;35568;48.104;11.782;2022-07-21T03:22:35;8;7;
48155;PMS5003;35568;48.104;11.782;2022-07-21T03:25:03;10;10;
48155;PMS5003;35568;48.104;11.782;2022-07-21T03:27:31;9;8;
48155;PMS5003;35568;48.104;11.782;2022-07-21T03:29:59;7;7;
48155;PMS5003;35568;48.104;11.782;2022-07-21T03:32:25;9;9;
48155;PMS5003;35568;48.104;11.782;2022-07-21T03:34:52;9;9;
48155;PMS5003;35568;48.104;11.782;2022-07-21T03:37:19;10;8;
48155;PMS5003;35568;48.104;11.782;2022-07-21T03:39:46;10;9;
48155;PMS5003;35568;48.104;11.782;2022-07-21T03:42:13;12;11;
48155;PMS5003;35568;48.104;11.782;2022-07-21T03:44:39;9;9;
48155;PMS5003;35568;48.104;11.782;2022-07-21T03:47:06;8;8;
48155;PMS5003;35568;48.104;11.782;2022-07-21T03:49:33;10;10;
48155;PMS5003;35568;48.104;11.782;2022-07-21T03:52:01;9;8;
48155;PMS5003;35568;48.104;11.782;2022-07-21T03:54:27;9;9;
48155;PMS5003;35568;48.104;11.782;2022-07-21T03:56:55;13;12;
48155;PMS5003;35568;48.104;11.782;2022-07-21T03:59:22;9;9;
48155;PMS5003;35568;48.104;11.782;2022-07-21T04:01:48;9;9;
48155;PMS5003;35568;48.104;11.782;2022-07-21T04:04:15;9;9;
48155;PMS5003;35568;48.104;11.782;2022-07-21T04:06:42;11;11;
48155;PMS5003;35568;48.104;11.782;2022-07-21T04:09:09;12;11;
48155;PMS5003;35568;48.104;11.782;2022-07-21T04:11:36;10;10;
48155;PMS5003;35568;48.104;11.782;2022-07-21T04:14:03;13;12;
48155;PMS5003;35568;48.104;11.782;2022-07-21T04:16:30;12;12;
48155;PMS5003;35568;48.104;11.782;2022-07-21T04:18:57;10;10;
48155;PMS5003;35568;48.104;11.782;2022-07-21T04:21:23;10;10;
48155;PMS5003;35568;48.104;11.782;2022-07-21T04:23:50;13;11;
48155;PMS5003;35568;48.104;11.782;2022-07-21T04:26:17;17;16;
48155;PMS5003;35568;48.104;11.782;2022-07-21T04:28:44;13;12;
48155;PMS5003;35568;48.104;11.782;2022-07-21T04:31:11;12;11;
48155;PMS5003;35568;48.104;11.782;2022-07-21T04:33:38;13;11;
48155;PMS5003;35568;48.104;11.782;2022-07-21T04:36:05;12;11;
48155;PMS5003;35568;48.104;11.782;2022-07-21T04:38:33;15;15;
48155;PMS5003;35568;48.104;11.782;2022-07-21T04:41:00;15;15;
48155;PMS5003;35568;48.104;11.782;2022-07-21T04:43:27;19;18;
48155;PMS5003;35568;48.104;11.782;2022-07-21T04:45:54;17;16;
48155;PMS5003;35568;48.104;11.782;2022-07-21T04:48:21;17;16;
48155;PMS5003;35568;48.104;11.782;2022-07-21T04:50:48;20;18;
48155;PMS5003;35568;48.104;11.782;2022-07-21T04:53:14;16;16;
48155;PMS5003;35568;48.104;11.782;2022-07-21T04:55:41;16;16;
48155;PMS5003;35568;48.104;11.782;2022-07-21T04:58:07;17;17;
48155;PMS5003;35568;48.104;11.782;2022-07-21T05:00:34;16;16;
48155;PMS5003;35568;48.104;11.782;2022-07-21T05:03:01;16;15;
48155;PMS5003;35568;48.104;11.782;2022-07-21T05:05:28;18;18;
48155;PMS5003;35568;48.104;11.782;2022-07-21T05:07:55;17;17;
48155;PMS5003;35568;48.104;11.782;2022-07-21T05:10:22;16;16;
48155;PMS5003;35568;48.104;11.782;2022-07-21T05:12:49;17;16;
48155;PMS5003;35568;48.104;11.782;2022-07-21T05:15:16;21;20;
48155;PMS5003;35568;48.104;11.782;2022-07-21T05:17:43;16;15;
48155;PMS5003;35568;48.104;11.782;2022-07-21T05:20:11;16;15;
48155;PMS5003;35568;48.104;11.782;2022-07-21T05:22:39;18;17;
48155;PMS5003;35568;48.104;11.782;2022-07-21T05:25:07;18;18;
48155;PMS5003;35568;48.104;11.782;2022-07-21T05:27:34;16;16;
48155;PMS5003;35568;48.104;11.782;2022-07-21T05:30:02;19;18;
48155;PMS5003;35568;48.104;11.782;2022-07-21T05:32:29;16;16;
48155;PMS5003;35568;48.104;11.782;2022-07-21T05:34:56;15;14;
48155;PMS5003;35568;48.104;11.782;2022-07-21T05:37:23;17;16;
48155;PMS5003;35568;48.104;11.782;2022-07-21T05:39:50;19;18;
48155;PMS5003;35568;48.104;11.782;2022-07-21T05:42:17;15;15;
48155;PMS5003;35568;48.104;11.782;2022-07-21T05:44:44;17;17;
48155;PMS5003;35568;48.104;11.782;2022-07-21T05:47:11;19;17;
48155;PMS5003;35568;48.104;11.782;2022-07-21T05:49:38;16;15;
48155;PMS5003;35568;48.104;11.782;2022-07-21T05:52:05;17;15;
48155;PMS5003;35568;48.104;11.782;2022-07-21T05:54:32;19;17;
48155;PMS5003;35568;48.104;11.782;2022-07-21T05:57:00;20;18;
48155;PMS5003;35568;48.104;11.782;2022-07-21T05:59:27;19;17;
48155;PMS5003;35568;48.104;11.782;2022-07-21T06:01:54;14;14;
48155;PMS5003;35568;48.104;11.782;2022-07-21T06:04:21;17;16;
48155;PMS5003;35568;48.104;11.782;2022-07-21T06:06:48;15;15;
48155;PMS5003;35568;48.104;11.782;2022-07-21T06:09:15;13;13;
48155;PMS5003;35568;48.104;11.782;2022-07-21T06:11:43;19;17;
48155;PMS5003;35568;48.104;11.782;2022-07-21T06:14:09;18;18;
48155;PMS5003;35568;48.104;11.782;2022-07-21T06:16:37;18;18;
48155;PMS5003;35568;48.104;11.782;2022-07-21T06:19:04;14;12;
48155;PMS5003;35568;48.104;11.782;2022-07-21T06:21:31;17;16;
48155;PMS5003;35568;48.104;11.782;2022-07-21T06:23:58;13;12;
48155;PMS5003;35568;48.104;11.782;2022-07-21T06:26:26;13;13;
48155;PMS5003;35568;48.104;11.782;2022-07-21T06:28:53;15;15;
48155;PMS5003;35568;48.104;11.782;2022-07-21T06:31:20;14;14;
48155;PMS5003;35568;48.104;11.782;2022-07-21T06:33:48;16;16;
48155;PMS5003;35568;48.104;11.782;2022-07-21T06:36:15;16;16;
48155;PMS5003;35568;48.104;11.782;2022-07-21T06:38:42;12;12;
48155;PMS5003;35568;48.104;11.782;2022-07-21T06:41:09;17;17;
48155;PMS5003;35568;48.104;11.782;2022-07-21T06:43:36;16;16;
48155;PMS5003;35568;48.104;11.782;2022-07-21T06:46:03;20;19;
48155;PMS5003;35568;48.104;11.782;2022-07-21T06:48:31;17;17;
48155;PMS5003;35568;48.104;11.782;2022-07-21T06:50:58;19;18;
48155;PMS5003;35568;48.104;11.782;2022-07-21T06:53:25;17;17;
48155;PMS5003;35568;48.104;11.782;2022-07-21T06:55:52;20;20;
48155;PMS5003;35568;48.104;11.782;2022-07-21T06:58:20;16;14;
48155;PMS5003;35568;48.104;11.782;2022-07-21T07:00:49;20;18;
48155;PMS5003;35568;48.104;11.782;2022-07-21T07:03:17;20;20;
48155;PMS5003;35568;48.104;11.782;2022-07-21T07:05:45;18;18;
48155;PMS5003;35568;48.104;11.782;2022-07-21T07:08:13;18;16;
48155;PMS5003;35568;48.104;11.782;2022-07-21T07:10:41;20;19;
48155;PMS5003;35568;48.104;11.782;2022-07-21T07:13:09;19;16;
48155;PMS5003;35568;48.104;11.782;2022-07-21T07:15:37;17;17;
48155;PMS5003;35568;48.104;11.782;2022-07-21T07:18:03;20;19;
48155;PMS5003;35568;48.104;11.782;2022-07-21T07:20:31;20;18;
48155;PMS5003;35568;48.104;11.782;2022-07-21T07:22:58;22;21;
48155;PMS5003;35568;48.104;11.782;2022-07-21T07:25:25;20;20;
48155;PMS5003;35568;48.104;11.782;2022-07-21T07:27:52;20;19;
48155;PMS5003;35568;48.104;11.782;2022-07-21T07:30:19;21;20;
48155;PMS5003;35568;48.104;11.782;2022-07-21T07:32:46;21;19;
48155;PMS5003;35568;48.104;11.782;2022-07-21T07:35:13;18;17;
48155;PMS5003;35568;48.104;11.782;2022-07-21T07:37:42;19;17;
48155;PMS5003;35568;48.104;11.782;2022-07-21T07:40:12;21;21;
48155;PMS5003;35568;48.104;11.782;2022-07-21T07:42:40;19;18;
48155;PMS5003;35568;48.104;11.782;2022-07-21T07:45:08;20;19;
48155;PMS5003;35568;48.104;11.782;2022-07-21T07:47:36;22;21;
48155;PMS5003;35568;48.104;11.782;2022-07-21T07:50:05;21;19;
48155;PMS5003;35568;48.104;11.782;2022-07-21T07:52:33;20;18;
48155;PMS5003;35568;48.104;11.782;2022-07-21T07:55:00;19;19;
48155;PMS5003;35568;48.104;11.782;2022-07-21T07:57:27;26;23;
48155;PMS5003;35568;48.104;11.782;2022-07-21T07:59:54;20;18;
48155;PMS5003;35568;48.104;11.782;2022-07-21T08:02:21;19;18;
48155;PMS5003;35568;48.104;11.782;2022-07-21T08:04:49;20;20;
48155;PMS5003;35568;48.104;11.782;2022-07-21T08:07:16;19;18;
48155;PMS5003;35568;48.104;11.782;2022-07-21T08:09:43;22;20;
48155;PMS5003;35568;48.104;11.782;2022-07-21T08:12:10;18;17;
48155;PMS5003;35568;48.104;11.782;2022-07-21T08:14:37;18;17;
48155;PMS5003;35568;48.104;11.782;2022-07-21T08:17:04;20;18;
48155;PMS5003;35568;48.104;11.782;2022-07-21T08:19:31;18;17;
48155;PMS5003;35568;48.104;11.782;2022-07-21T08:21:58;20;19;
48155;PMS5003;35568;48.104;11.782;2022-07-21T08:24:25;17;17;
48155;PMS5003;35568;48.104;11.782;2022-07-21T08:26:52;17;17;
48155;PMS5003;35568;48.104;11.782;2022-07-21T08:29:19;21;21;
48155;PMS5003;35568;48.104;11.782;2022-07-21T08:31:47;20;19;
48155;PMS5003;35568;48.104;11.782;2022-07-21T08:34:14;16;16;
48155;PMS5003;35568;48.104;11.782;2022-07-21T08:36:41;16;16;
48155;PMS5003;35568;48.104;11.782;2022-07-21T08:39:07;16;15;
48155;PMS5003;35568;48.104;11.782;2022-07-21T08:41:35;20;20;
48155;PMS5003;35568;48.104;11.782;2022-07-21T08:44:03;19;19;
48155;PMS5003;35568;48.104;11.782;2022-07-21T08:46:30;21;20;
48155;PMS5003;35568;48.104;11.782;2022-07-21T08:48:59;17;15;
48155;PMS5003;35568;48.104;11.782;2022-07-21T08:51:31;18;17;
48155;PMS5003;35568;48.104;11.782;2022-07-21T08:53:59;22;20;
48155;PMS5003;35568;48.104;11.782;2022-07-21T08:56:26;17;17;
48155;PMS5003;35568;48.104;11.782;2022-07-21T08:58:53;18;16;
48155;PMS5003;35568;48.104;11.782;2022-07-21T09:01:21;21;18;
48155;PMS5003;35568;48.104;11.782;2022-07-21T09:03:48;14;14;
48155;PMS5003;35568;48.104;11.782;2022-07-21T09:06:15;18;17;
48155;PMS5003;35568;48.104;11.782;2022-07-21T09:08:43;22;19;
48155;PMS5003;35568;48.104;11.782;2022-07-21T09:11:15;17;17;
48155;PMS5003;35568;48.104;11.782;2022-07-21T09:13:45;21;21;
48155;PMS5003;35568;48.104;11.782;2022-07-21T09:16:13;18;17;
48155;PMS5003;35568;48.104;11.782;2022-07-21T09:18:49;19;17;
48155;PMS5003;35568;48.104;11.782;2022-07-21T09:21:17;18;17;
48155;PMS5003;35568;48.104;11.782;2022-07-21T09:23:45;20;19;
48155;PMS5003;35568;48.104;11.782;2022-07-21T09:26:13;18;17;
48155;PMS5003;35568;48.104;11.782;2022-07-21T09:28:39;21;19;
48155;PMS5003;35568;48.104;11.782;2022-07-21T09:31:07;21;20;
48155;PMS5003;35568;48.104;11.782;2022-07-21T09:33:36;19;17;
48155;PMS5003;35568;48.104;11.782;2022-07-21T09:36:06;18;18;
48155;PMS5003;35568;48.104;11.782;2022-07-21T09:38:35;17;16;
48155;PMS5003;35568;48.104;11.782;2022-07-21T09:41:05;21;20;
48155;PMS5003;35568;48.104;11.782;2022-07-21T09:43:35;18;17;
48155;PMS5003;35568;48.104;11.782;2022-07-21T09:46:04;19;18;
48155;PMS5003;35568;48.104;11.782;2022-07-21T09:48:32;22;21;
48155;PMS5003;35568;48.104;11.782;2022-07-21T09:51:33;20;19;
48155;PMS5003;35568;48.104;11.782;2022-07-21T09:54:02;21;21;
48155;PMS5003;35568;48.104;11.782;2022-07-21T09:56:32;19;18;
48155;PMS5003;35568;48.104;11.782;2022-07-21T09:59:02;22;20;
48155;PMS5003;35568;48.104;11.782;2022-07-21T10:01:31;23;22;
48155;PMS5003;35568;48.104;11.782;2022-07-21T10:03:59;20;20;
48155;PMS5003;35568;48.104;11.782;2022-07-21T10:06:27;22;22;
48155;PMS5003;35568;48.104;11.782;2022-07-21T10:08:56;19;18;
48155;PMS5003;35568;48.104;11.782;2022-07-21T10:11:24;19;17;
48155;PMS5003;35568;48.104;11.782;2022-07-21T10:13:52;23;22;
48155;PMS5003;35568;48.104;11.782;2022-07-21T10:16:20;21;20;
48155;PMS5003;35568;48.104;11.782;2022-07-21T10:18:52;20;19;
48155;PMS5003;35568;48.104;11.782;2022-07-21T10:21:29;20;19;
48155;PMS5003;35568;48.104;11.782;2022-07-21T10:24:01;21;19;
48155;PMS5003;35568;48.104;11.782;2022-07-21T10:26:29;21;20;
48155;PMS5003;35568;48.104;11.782;2022-07-21T10:28:56;19;18;
48155;PMS5003;35568;48.104;11.782;2022-07-21T10:31:25;22;21;
48155;PMS5003;35568;48.104;11.782;2022-07-21T10:33:53;20;19;
48155;PMS5003;35568;48.104;11.782;2022-07-21T10:36:39;20;19;
48155;PMS5003;35568;48.104;11.782;2022-07-21T10:39:24;21;18;
48155;PMS5003;35568;48.104;11.782;2022-07-21T10:41:52;21;20;
48155;PMS5003;35568;48.104;11.782;2022-07-21T10:44:38;19;18;
48155;PMS5003;35568;48.104;11.782;2022-07-21T10:47:10;20;19;
48155;PMS5003;35568;48.104;11.782;2022-07-21T10:49:46;19;18;
48155;PMS5003;35568;48.104;11.782;2022-07-21T10:53:20;20;18;
48155;PMS5003;35568;48.104;11.782;2022-07-21T10:55:48;24;23;
48155;PMS5003;35568;48.104;11.782;2022-07-21T10:58:23;23;23;
48155;PMS5003;35568;48.104;11.782;2022-07-21T11:00:52;18;17;
48155;PMS5003;35568;48.104;11.782;2022-07-21T11:03:24;20;20;
48155;PMS5003;35568;48.104;11.782;2022-07-21T11:06:12;20;18;
48155;PMS5003;35568;48.104;11.782;2022-07-21T11:08:42;19;18;
48155;PMS5003;35568;48.104;11.782;2022-07-21T11:11:10;21;20;
48155;PMS5003;35568;48.104;11.782;2022-07-21T11:14:11;22;21;
48155;PMS5003;35568;48.104;11.782;2022-07-21T11:16:57;23;20;
48155;PMS5003;35568;48.104;11.782;2022-07-21T11:19:33;19;17;
48155;PMS5003;35568;48.104;11.782;2022-07-21T11:22:04;22;21;
48155;PMS5003;35568;48.104;11.782;2022-07-21T11:24:33;26;24;
48155;PMS5003;35568;48.104;11.782;2022-07-21T11:27:02;21;20;
48155;PMS5003;35568;48.104;11.782;2022-07-21T11:29:31;18;17;
48155;PMS5003;35568;48.104;11.782;2022-07-21T11:31:59;20;17;
48155;PMS5003;35568;48.104;11.782;2022-07-21T11:34:36;21;19;
48155;PMS5003;35568;48.104;11.782;2022-07-21T11:37:05;22;22;
48155;PMS5003;35568;48.104;11.782;2022-07-21T11:39:32;25;23;
48155;PMS5003;35568;48.104;11.782;2022-07-21T11:42:01;19;19;
48155;PMS5003;35568;48.104;11.782;2022-07-21T11:44:30;21;21;
48155;PMS5003;35568;48.104;11.782;2022-07-21T11:46:57;20;20;
48155;PMS5003;35568;48.104;11.782;2022-07-21T11:49:26;19;19;
48155;PMS5003;35568;48.104;11.782;2022-07-21T11:51:53;21;17;
48155;PMS5003;35568;48.104;11.782;2022-07-21T11:54:24;17;16;
48155;PMS5003;35568;48.104;11.782;2022-07-21T11:56:53;18;17;
48155;PMS5003;35568;48.104;11.782;2022-07-21T11:59:21;18;18;
48155;PMS5003;35568;48.104;11.782;2022-07-21T12:01:50;17;17;
48155;PMS5003;35568;48.104;11.782;2022-07-21T12:04:28;17;16;
48155;PMS5003;35568;48.104;11.782;2022-07-21T12:06:59;16;16;
48155;PMS5003;35568;48.104;11.782;2022-07-21T12:09:27;15;15;
48155;PMS5003;35568;48.104;11.782;2022-07-21T12:11:55;16;16;
48155;PMS5003;35568;48.104;11.782;2022-07-21T12:14:38;18;18;
48155;PMS5003;35568;48.104;11.782;2022-07-21T12:17:07;22;20;
48155;PMS5003;35568;48.104;11.782;2022-07-21T12:19:34;20;19;
48155;PMS5003;35568;48.104;11.782;2022-07-21T12:22:01;21;19;
48155;PMS5003;35568;48.104;11.782;2022-07-21T12:25:00;20;18;
48155;PMS5003;35568;48.104;11.782;2022-07-21T12:27:28;20;18;
48155;PMS5003;35568;48.104;11.782;2022-07-21T12:29:55;18;18;
48155;PMS5003;35568;48.104;11.782;2022-07-21T12:32:39;24;21;
48155;PMS5003;35568;48.104;11.782;2022-07-21T12:35:15;25;21;
48155;PMS5003;35568;48.104;11.782;2022-07-21T12:38:01;20;19;
48155;PMS5003;35568;48.104;11.782;2022-07-21T12:40:31;20;19;
48155;PMS5003;35568;48.104;11.782;2022-07-21T12:43:08;20;20;
48155;PMS5003;35568;48.104;11.782;2022-07-21T12:45:55;20;20;
48155;PMS5003;35568;48.104;11.782;2022-07-21T12:48:25;20;20;
48155;PMS5003;35568;48.104;11.782;2022-07-21T12:50:59;21;20;
48155;PMS5003;35568;48.104;11.782;2022-07-21T12:53:27;19;18;
48155;PMS5003;35568;48.104;11.782;2022-07-21T12:55:55;24;22;
48155;PMS5003;35568;48.104;11.782;2022-07-21T12:58:23;21;18;
48155;PMS5003;35568;48.104;11.782;2022-07-21T13:00:50;20;20;
48155;PMS5003;35568;48.104;11.782;2022-07-21T13:03:17;21;19;
48155;PMS5003;35568;48.104;11.782;2022-07-21T13:05:45;22;21;
48155;PMS5003;35568;48.104;11.782;2022-07-21T13:08:12;21;19;
48155;PMS5003;35568;48.104;11.782;2022-07-21T13:10:39;22;21;
48155;PMS5003;35568;48.104;11.782;2022-07-21T13:13:07;25;22;
48155;PMS5003;35568;48.104;11.782;2022-07-21T13:15:34;23;22;
48155;PMS5003;35568;48.104;11.782;2022-07-21T13:18:02;21;20;
48155;PMS5003;35568;48.104;11.782;2022-07-21T13:20:29;22;22;
48155;PMS5003;35568;48.104;11.782;2022-07-21T13:22:56;23;21;
48155;PMS5003;35568;48.104;11.782;2022-07-21T13:25:23;23;22;
48155;PMS5003;35568;48.104;11.782;2022-07-21T13:27:50;25;25;
48155;PMS5003;35568;48.104;11.782;2022-07-21T13:30:17;26;23;
48155;PMS5003;35568;48.104;11.782;2022-07-21T13:32:45;22;22;
48155;PMS5003;35568;48.104;11.782;2022-07-21T13:35:12;24;23;
48155;PMS5003;35568;48.104;11.782;2022-07-21T13:37:39;22;21;
48155;PMS5003;35568;48.104;11.782;2022-07-21T13:40:06;23;21;
48155;PMS5003;35568;48.104;11.782;2022-07-21T13:42:34;18;17;
48155;PMS5003;35568;48.104;11.782;2022-07-21T13:45:01;19;16;
48155;PMS5003;35568;48.104;11.782;2022-07-21T13:47:28;20;19;
48155;PMS5003;35568;48.104;11.782;2022-07-21T13:49:55;20;19;
48155;PMS5003;35568;48.104;11.782;2022-07-21T13:52:23;31;26;
48155;PMS5003;35568;48.104;11.782;2022-07-21T13:54:49;22;22;
48155;PMS5003;35568;48.104;11.782;2022-07-21T13:57:16;18;18;
48155;PMS5003;35568;48.104;11.782;2022-07-21T13:59:44;20;20;
48155;PMS5003;35568;48.104;11.782;2022-07-21T14:02:11;25;24;
48155;PMS5003;35568;48.104;11.782;2022-07-21T14:04:38;20;19;
48155;PMS5003;35568;48.104;11.782;2022-07-21T14:07:04;20;19;
48155;PMS5003;35568;48.104;11.782;2022-07-21T14:09:32;20;19;
48155;PMS5003;35568;48.104;11.782;2022-07-21T14:11:59;20;20;
48155;PMS5003;35568;48.104;11.782;2022-07-21T14:14:26;20;19;
48155;PMS5003;35568;48.104;11.782;2022-07-21T14:16:54;24;22;
48155;PMS5003;35568;48.104;11.782;2022-07-21T14:19:20;21;21;
48155;PMS5003;35568;48.104;11.782;2022-07-21T14:21:48;22;20;
48155;PMS5003;35568;48.104;11.782;2022-07-21T14:24:16;23;21;
48155;PMS5003;35568;48.104;11.782;2022-07-21T14:26:43;24;23;
48155;PMS5003;35568;48.104;11.782;2022-07-21T14:29:10;24;24;
48155;PMS5003;35568;48.104;11.782;2022-07-21T14:31:37;20;19;
48155;PMS5003;35568;48.104;11.782;2022-07-21T14:34:04;24;23;
48155;PMS5003;35568;48.104;11.782;2022-07-21T14:36:31;23;22;
48155;PMS5003;35568;48.104;11.782;2022-07-21T14:38:57;19;19;
48155;PMS5003;35568;48.104;11.782;2022-07-21T14:41:24;21;20;
48155;PMS5003;35568;48.104;11.782;2022-07-21T14:43:51;19;18;
48155;PMS5003;35568;48.104;11.782;2022-07-21T14:46:17;18;18;
48155;PMS5003;35568;48.104;11.782;2022-07-21T14:48:45;18;16;
48155;PMS5003;35568;48.104;11.782;2022-07-21T14:51:12;18;16;
48155;PMS5003;35568;48.104;11.782;2022-07-21T14:53:39;17;16;
48155;PMS5003;35568;48.104;11.782;2022-07-21T14:56:06;17;17;
48155;PMS5003;35568;48.104;11.782;2022-07-21T14:58:33;19;16;
48155;PMS5003;35568;48.104;11.782;2022-07-21T15:01:01;20;19;
48155;PMS5003;35568;48.104;11.782;2022-07-21T15:03:27;21;19;
48155;PMS5003;35568;48.104;11.782;2022-07-21T15:05:54;14;14;
48155;PMS5003;35568;48.104;11.782;2022-07-21T15:08:20;13;13;
48155;PMS5003;35568;48.104;11.782;2022-07-21T15:10:47;15;14;
48155;PMS5003;35568;48.104;11.782;2022-07-21T15:13:14;19;18;
48155;PMS5003;35568;48.104;11.782;2022-07-21T15:15:41;15;15;
48155;PMS5003;35568;48.104;11.782;2022-07-21T15:18:09;15;14;
48155;PMS5003;35568;48.104;11.782;2022-07-21T15:20:36;15;15;
48155;PMS5003;35568;48.104;11.782;2022-07-21T15:23:03;13;13;
48155;PMS5003;35568;48.104;11.782;2022-07-21T15:25:30;17;16;
48155;PMS5003;35568;48.104;11.782;2022-07-21T15:27:58;14;14;
48155;PMS5003;35568;48.104;11.782;2022-07-21T15:30:25;17;16;
48155;PMS5003;35568;48.104;11.782;2022-07-21T15:32:52;16;15;
48155;PMS5003;35568;48.104;11.782;2022-07-21T15:35:19;19;18;
48155;PMS5003;35568;48.104;11.782;2022-07-21T15:37:45;15;14;
48155;PMS5003;35568;48.104;11.782;2022-07-21T15:40:12;18;18;
48155;PMS5003;35568;48.104;11.782;2022-07-21T15:42:39;15;13;
48155;PMS5003;35568;48.104;11.782;2022-07-21T15:45:08;16;16;
48155;PMS5003;35568;48.104;11.782;2022-07-21T15:47:35;18;17;
48155;PMS5003;35568;48.104;11.782;2022-07-21T15:50:02;23;21;
48155;PMS5003;35568;48.104;11.782;2022-07-21T15:52:31;19;19;
48155;PMS5003;35568;48.104;11.782;2022-07-21T15:54:58;18;17;
48155;PMS5003;35568;48.104;11.782;2022-07-21T15:57:25;18;17;
48155;PMS5003;35568;48.104;11.782;2022-07-21T15:59:53;18;16;
48155;PMS5003;35568;48.104;11.782;2022-07-21T16:02:20;19;18;
48155;PMS5003;35568;48.104;11.782;2022-07-21T16:04:47;15;14;
48155;PMS5003;35568;48.104;11.782;2022-07-21T16:07:14;17;17;
48155;PMS5003;35568;48.104;11.782;2022-07-21T16:09:41;21;20;
48155;PMS5003;35568;48.104;11.782;2022-07-21T16:12:08;19;17;
48155;PMS5003;35568;48.104;11.782;2022-07-21T16:14:37;19;18;
48155;PMS5003;35568;48.104;11.782;2022-07-21T16:17:04;19;17;
48155;PMS5003;35568;48.104;11.782;2022-07-21T16:19:31;17;16;
48155;PMS5003;35568;48.104;11.782;2022-07-21T16:21:59;21;20;
48155;PMS5003;35568;48.104;11.782;2022-07-21T16:24:26;20;18;
48155;PMS5003;35568;48.104;11.782;2022-07-21T16:26:53;17;16;
48155;PMS5003;35568;48.104;11.782;2022-07-21T16:29:20;19;17;
48155;PMS5003;35568;48.104;11.782;2022-07-21T16:31:48;17;14;
48155;PMS5003;35568;48.104;11.782;2022-07-21T16:34:15;19;19;
48155;PMS5003;35568;48.104;11.782;2022-07-21T16:36:42;18;17;
48155;PMS5003;35568;48.104;11.782;2022-07-21T16:39:09;16;16;
48155;PMS5003;35568;48.104;11.782;2022-07-21T16:41:36;18;17;
48155;PMS5003;35568;48.104;11.782;2022-07-21T16:44:03;21;20;
48155;PMS5003;35568;48.104;11.782;2022-07-21T16:46:30;20;18;